Main page
METAR-TAF:

METAR-TAF

Airports :

Sari, Iran

Dasht-e Naz Airport

latitude: 36-38-09N, longitude: 53-11-37E, elevation: 11 m

Current weather observation

The report was made 42 minutes ago, at 03:00 UTC
Wind 2 kt from variable directions
Temperature 13°C
Humidity 94%
Pressure 1021 hPa
Visibility: 8000 m
Few clouds at a height of 9000 ft
Broken clouds at a height of 20000 ft

METAR: OINZ 290300Z VRB02KT 8000 FEW090 BKN200 13/12 Q1021

Time: 08:12 (03:42 UTC)


TAF: missing

Weather observations and forecasts of more than 4000 airports (METAR and TAF reports).

The available stations are represented by yellow and red dots on the map.

Hover mouse over dot to see the name of the station.

Then click to see weather observations and forecasts.

To change the map : click on the green buttons with a black cross to zoom in, on the green button with a dash to zoom out, or on the green arrows for adjacent maps.


METAR-TAF: